sensor_id;sensor_type;location;lat;lon;timestamp;pressure;altitude;pressure_sealevel;temperature
79053;BMP280;68451;49.510;6.026;2024-03-02T00:01:48;96522.63;;;6.35
79053;BMP280;68451;49.510;6.026;2024-03-02T00:03:50;96534.38;;;6.38
79053;BMP280;68451;49.510;6.026;2024-03-02T00:05:53;96539.56;;;6.38
79053;BMP280;68451;49.510;6.026;2024-03-02T00:07:55;96547.97;;;6.45
79053;BMP280;68451;49.510;6.026;2024-03-02T00:09:58;96411.72;;;5.46
79053;BMP280;68451;49.510;6.026;2024-03-02T00:12:00;96520.56;;;6.20
79053;BMP280;68451;49.510;6.026;2024-03-02T00:14:02;96525.94;;;6.19
79053;BMP280;68451;49.510;6.026;2024-03-02T00:16:04;96495.91;;;5.95
79053;BMP280;68451;49.510;6.026;2024-03-02T00:18:11;96553.53;;;6.37
79053;BMP280;68451;49.510;6.026;2024-03-02T00:20:18;96300.69;;;4.81
79053;BMP280;68451;49.510;6.026;2024-03-02T00:22:21;96457.41;;;5.75
79053;BMP280;68451;49.510;6.026;2024-03-02T00:24:32;96397.91;;;5.28
79053;BMP280;68451;49.510;6.026;2024-03-02T00:26:34;96521.44;;;6.14
79053;BMP280;68451;49.510;6.026;2024-03-02T00:28:36;96546.53;;;6.25
79053;BMP280;68451;49.510;6.026;2024-03-02T00:30:54;96418.94;;;5.44
79053;BMP280;68451;49.510;6.026;2024-03-02T00:32:59;96362.28;;;5.07
79053;BMP280;68451;49.510;6.026;2024-03-02T00:35:00;96513.69;;;6.14
79053;BMP280;68451;49.510;6.026;2024-03-02T00:37:02;96539.81;;;6.24
79053;BMP280;68451;49.510;6.026;2024-03-02T00:39:04;96541.72;;;6.29
79053;BMP280;68451;49.510;6.026;2024-03-02T00:41:16;96419.59;;;5.51
79053;BMP280;68451;49.510;6.026;2024-03-02T00:43:38;96540.66;;;6.30
79053;BMP280;68451;49.510;6.026;2024-03-02T00:45:47;96532.72;;;6.20
79053;BMP280;68451;49.510;6.026;2024-03-02T00:47:49;96554.31;;;6.37
79053;BMP280;68451;49.510;6.026;2024-03-02T00:49:50;96483.97;;;6.05
79053;BMP280;68451;49.510;6.026;2024-03-02T00:51:54;96537.50;;;6.40
79053;BMP280;68451;49.510;6.026;2024-03-02T00:53:59;96412.19;;;5.66
79053;BMP280;68451;49.510;6.026;2024-03-02T00:56:01;96516.13;;;6.33
79053;BMP280;68451;49.510;6.026;2024-03-02T00:58:03;96224.38;;;4.43
79053;BMP280;68451;49.510;6.026;2024-03-02T01:00:05;96550.31;;;6.58
79053;BMP280;68451;49.510;6.026;2024-03-02T01:02:11;96394.41;;;5.58
79053;BMP280;68451;49.510;6.026;2024-03-02T01:04:13;96552.53;;;6.66
79053;BMP280;68451;49.510;6.026;2024-03-02T01:06:16;96507.66;;;6.37
79053;BMP280;68451;49.510;6.026;2024-03-02T01:08:18;96517.44;;;6.47
79053;BMP280;68451;49.510;6.026;2024-03-02T01:10:20;96553.19;;;6.73
79053;BMP280;68451;49.510;6.026;2024-03-02T01:12:22;96443.06;;;6.07
79053;BMP280;68451;49.510;6.026;2024-03-02T01:14:23;96561.72;;;6.85
79053;BMP280;68451;49.510;6.026;2024-03-02T01:16:25;96565.63;;;6.88
79053;BMP280;68451;49.510;6.026;2024-03-02T01:18:27;96565.41;;;6.89
79053;BMP280;68451;49.510;6.026;2024-03-02T01:20:29;96406.19;;;5.89
79053;BMP280;68451;49.510;6.026;2024-03-02T01:22:31;96569.91;;;6.94
79053;BMP280;68451;49.510;6.026;2024-03-02T01:24:32;96551.81;;;6.82
79053;BMP280;68451;49.510;6.026;2024-03-02T01:26:34;96457.91;;;6.23
79053;BMP280;68451;49.510;6.026;2024-03-02T01:28:36;96575.41;;;6.97
79053;BMP280;68451;49.510;6.026;2024-03-02T01:30:38;96542.91;;;6.78
79053;BMP280;68451;49.510;6.026;2024-03-02T01:32:39;96586.69;;;7.03
79053;BMP280;68451;49.510;6.026;2024-03-02T01:34:41;96577.22;;;6.97
79053;BMP280;68451;49.510;6.026;2024-03-02T01:36:43;96452.03;;;6.16
79053;BMP280;68451;49.510;6.026;2024-03-02T01:38:45;96568.91;;;6.95
79053;BMP280;68451;49.510;6.026;2024-03-02T01:40:47;96581.50;;;7.03
79053;BMP280;68451;49.510;6.026;2024-03-02T01:42:49;96554.31;;;6.77
79053;BMP280;68451;49.510;6.026;2024-03-02T01:44:51;96597.28;;;7.01
79053;BMP280;68451;49.510;6.026;2024-03-02T01:46:53;96468.47;;;6.22
79053;BMP280;68451;49.510;6.026;2024-03-02T01:48:54;96465.88;;;6.22
79053;BMP280;68451;49.510;6.026;2024-03-02T01:50:57;96568.47;;;6.86
79053;BMP280;68451;49.510;6.026;2024-03-02T01:53:00;96574.09;;;6.95
79053;BMP280;68451;49.510;6.026;2024-03-02T01:55:02;96566.53;;;6.93
79053;BMP280;68451;49.510;6.026;2024-03-02T01:57:05;96456.09;;;6.24
79053;BMP280;68451;49.510;6.026;2024-03-02T01:59:08;96565.41;;;6.89
79053;BMP280;68451;49.510;6.026;2024-03-02T02:01:10;96588.56;;;7.07
79053;BMP280;68451;49.510;6.026;2024-03-02T02:03:12;96570.69;;;6.94
79053;BMP280;68451;49.510;6.026;2024-03-02T02:05:14;96186.31;;;4.50
79053;BMP280;68451;49.510;6.026;2024-03-02T02:07:16;96568.00;;;6.89
79053;BMP280;68451;49.510;6.026;2024-03-02T02:09:18;96591.41;;;7.06
79053;BMP280;68451;49.510;6.026;2024-03-02T02:11:20;96572.41;;;6.89
79053;BMP280;68451;49.510;6.026;2024-03-02T02:13:22;96597.75;;;6.98
79053;BMP280;68451;49.510;6.026;2024-03-02T02:15:31;96487.19;;;6.24
79053;BMP280;68451;49.510;6.026;2024-03-02T02:17:33;96610.19;;;6.96
79053;BMP280;68451;49.510;6.026;2024-03-02T02:19:35;96604.31;;;6.89
79053;BMP280;68451;49.510;6.026;2024-03-02T02:21:37;96468.19;;;6.07
79053;BMP280;68451;49.510;6.026;2024-03-02T02:23:39;96571.78;;;6.70
79053;BMP280;68451;49.510;6.026;2024-03-02T02:25:41;96588.66;;;6.84
79053;BMP280;68451;49.510;6.026;2024-03-02T02:27:42;96580.69;;;6.74
79053;BMP280;68451;49.510;6.026;2024-03-02T02:29:44;96571.38;;;6.61
79053;BMP280;68451;49.510;6.026;2024-03-02T02:31:46;96479.13;;;5.97
79053;BMP280;68451;49.510;6.026;2024-03-02T02:33:49;96474.84;;;5.91
79053;BMP280;68451;49.510;6.026;2024-03-02T02:35:51;96452.56;;;5.78
79053;BMP280;68451;49.510;6.026;2024-03-02T02:37:53;96582.31;;;6.52
79053;BMP280;68451;49.510;6.026;2024-03-02T02:39:55;96578.72;;;6.53
79053;BMP280;68451;49.510;6.026;2024-03-02T02:41:57;96581.66;;;6.45
79053;BMP280;68451;49.510;6.026;2024-03-02T02:43:59;96569.19;;;6.30
79053;BMP280;68451;49.510;6.026;2024-03-02T02:46:00;96545.31;;;6.16
79053;BMP280;68451;49.510;6.026;2024-03-02T02:48:02;96584.41;;;6.38
79053;BMP280;68451;49.510;6.026;2024-03-02T02:50:07;96475.97;;;5.72
79053;BMP280;68451;49.510;6.026;2024-03-02T02:52:09;96482.84;;;5.78
79053;BMP280;68451;49.510;6.026;2024-03-02T02:54:10;96571.34;;;6.33
79053;BMP280;68451;49.510;6.026;2024-03-02T02:56:13;96559.59;;;6.30
79053;BMP280;68451;49.510;6.026;2024-03-02T02:58:14;96564.69;;;6.37
79053;BMP280;68451;49.510;6.026;2024-03-02T03:00:16;96539.56;;;6.26
79053;BMP280;68451;49.510;6.026;2024-03-02T03:02:20;96559.38;;;6.32
79053;BMP280;68451;49.510;6.026;2024-03-02T03:04:22;96538.00;;;6.13
79053;BMP280;68451;49.510;6.026;2024-03-02T03:06:24;96537.53;;;6.16
79053;BMP280;68451;49.510;6.026;2024-03-02T03:08:26;96558.50;;;6.26
79053;BMP280;68451;49.510;6.026;2024-03-02T03:10:27;96528.09;;;6.10
79053;BMP280;68451;49.510;6.026;2024-03-02T03:12:29;96553.53;;;6.25
79053;BMP280;68451;49.510;6.026;2024-03-02T03:14:31;96557.16;;;6.24
79053;BMP280;68451;49.510;6.026;2024-03-02T03:16:33;96560.44;;;6.19
79053;BMP280;68451;49.510;6.026;2024-03-02T03:18:35;96558.06;;;6.18
79053;BMP280;68451;49.510;6.026;2024-03-02T03:20:36;96554.44;;;6.19
79053;BMP280;68451;49.510;6.026;2024-03-02T03:22:39;96561.44;;;6.18
79053;BMP280;68451;49.510;6.026;2024-03-02T03:24:40;96561.44;;;6.18
79053;BMP280;68451;49.510;6.026;2024-03-02T03:26:42;96553.66;;;6.18
79053;BMP280;68451;49.510;6.026;2024-03-02T03:28:44;96534.97;;;6.05
79053;BMP280;68451;49.510;6.026;2024-03-02T03:30:46;96543.44;;;6.00
79053;BMP280;68451;49.510;6.026;2024-03-02T03:32:47;96560.78;;;6.11
79053;BMP280;68451;49.510;6.026;2024-03-02T03:34:49;96528.78;;;5.82
79053;BMP280;68451;49.510;6.026;2024-03-02T03:36:51;96571.03;;;6.06
79053;BMP280;68451;49.510;6.026;2024-03-02T03:38:53;96576.22;;;6.06
79053;BMP280;68451;49.510;6.026;2024-03-02T03:40:55;96564.03;;;5.95
79053;BMP280;68451;49.510;6.026;2024-03-02T03:42:57;96579.22;;;6.03
79053;BMP280;68451;49.510;6.026;2024-03-02T03:44:59;96577.31;;;5.99
79053;BMP280;68451;49.510;6.026;2024-03-02T03:47:01;96516.81;;;5.58
79053;BMP280;68451;49.510;6.026;2024-03-02T03:49:04;96573.06;;;5.93
79053;BMP280;68451;49.510;6.026;2024-03-02T03:51:06;96561.19;;;5.85
79053;BMP280;68451;49.510;6.026;2024-03-02T03:53:08;96428.94;;;5.05
79053;BMP280;68451;49.510;6.026;2024-03-02T03:55:10;96572.72;;;6.01
79053;BMP280;68451;49.510;6.026;2024-03-02T03:57:12;96544.97;;;5.78
79053;BMP280;68451;49.510;6.026;2024-03-02T03:59:13;96559.63;;;5.84
79053;BMP280;68451;49.510;6.026;2024-03-02T04:01:15;96584.53;;;5.97
79053;BMP280;68451;49.510;6.026;2024-03-02T04:03:17;96578.91;;;5.88
79053;BMP280;68451;49.510;6.026;2024-03-02T04:05:19;96587.25;;;6.02
79053;BMP280;68451;49.510;6.026;2024-03-02T04:07:21;96569.19;;;5.83
79053;BMP280;68451;49.510;6.026;2024-03-02T04:09:22;96584.88;;;6.00
79053;BMP280;68451;49.510;6.026;2024-03-02T04:11:24;96579.38;;;5.97
79053;BMP280;68451;49.510;6.026;2024-03-02T04:13:26;96313.88;;;4.26
79053;BMP280;68451;49.510;6.026;2024-03-02T04:15:28;96573.94;;;5.87
79053;BMP280;68451;49.510;6.026;2024-03-02T04:17:31;96560.53;;;5.78
79053;BMP280;68451;49.510;6.026;2024-03-02T04:19:34;96587.22;;;5.90
79053;BMP280;68451;49.510;6.026;2024-03-02T04:21:36;96539.03;;;5.66
79053;BMP280;68451;49.510;6.026;2024-03-02T04:23:37;96584.22;;;5.93
79053;BMP280;68451;49.510;6.026;2024-03-02T04:25:39;96568.28;;;5.78
79053;BMP280;68451;49.510;6.026;2024-03-02T04:27:41;96581.03;;;5.91
79053;BMP280;68451;49.510;6.026;2024-03-02T04:29:43;96397.22;;;4.75
79053;BMP280;68451;49.510;6.026;2024-03-02T04:31:44;96574.75;;;5.87
79053;BMP280;68451;49.510;6.026;2024-03-02T04:33:46;96579.47;;;5.90
79053;BMP280;68451;49.510;6.026;2024-03-02T04:35:48;96539.81;;;5.66
79053;BMP280;68451;49.510;6.026;2024-03-02T04:37:50;96576.88;;;5.90
79053;BMP280;68451;49.510;6.026;2024-03-02T04:39:52;96576.88;;;5.90
79053;BMP280;68451;49.510;6.026;2024-03-02T04:41:54;96532.47;;;5.63
79053;BMP280;68451;49.510;6.026;2024-03-02T04:43:56;96575.66;;;5.93
79053;BMP280;68451;49.510;6.026;2024-03-02T04:45:58;96571.69;;;5.90
79053;BMP280;68451;49.510;6.026;2024-03-02T04:48:00;96543.19;;;5.67
79053;BMP280;68451;49.510;6.026;2024-03-02T04:50:02;96582.16;;;5.83
79053;BMP280;68451;49.510;6.026;2024-03-02T04:52:04;96543.63;;;5.64
79053;BMP280;68451;49.510;6.026;2024-03-02T04:54:06;96553.44;;;5.73
79053;BMP280;68451;49.510;6.026;2024-03-02T04:56:08;96580.56;;;5.82
79053;BMP280;68451;49.510;6.026;2024-03-02T04:58:35;96575.16;;;5.84
79053;BMP280;68451;49.510;6.026;2024-03-02T05:00:37;96555.00;;;5.74
79053;BMP280;68451;49.510;6.026;2024-03-02T05:02:50;96573.25;;;5.79
79053;BMP280;68451;49.510;6.026;2024-03-02T05:04:52;96584.72;;;5.83
79053;BMP280;68451;49.510;6.026;2024-03-02T05:06:54;96542.50;;;5.60
79053;BMP280;68451;49.510;6.026;2024-03-02T05:08:58;96454.47;;;5.02
79053;BMP280;68451;49.510;6.026;2024-03-02T05:11:00;96380.19;;;4.56
79053;BMP280;68451;49.510;6.026;2024-03-02T05:13:21;96600.63;;;5.87
79053;BMP280;68451;49.510;6.026;2024-03-02T05:15:23;96602.88;;;5.95
79053;BMP280;68451;49.510;6.026;2024-03-02T05:17:25;96601.75;;;5.91
79053;BMP280;68451;49.510;6.026;2024-03-02T05:19:27;96459.56;;;5.08
79053;BMP280;68451;49.510;6.026;2024-03-02T05:21:29;96570.09;;;5.77
79053;BMP280;68451;49.510;6.026;2024-03-02T05:23:30;96602.88;;;5.95
79053;BMP280;68451;49.510;6.026;2024-03-02T05:25:32;96575.59;;;5.81
79053;BMP280;68451;49.510;6.026;2024-03-02T05:27:34;96603.00;;;5.89
79053;BMP280;68451;49.510;6.026;2024-03-02T05:29:36;96586.69;;;5.88
79053;BMP280;68451;49.510;6.026;2024-03-02T05:31:38;96578.56;;;5.84
79053;BMP280;68451;49.510;6.026;2024-03-02T05:33:40;96603.66;;;6.07
79053;BMP280;68451;49.510;6.026;2024-03-02T05:35:44;96572.72;;;5.89
79053;BMP280;68451;49.510;6.026;2024-03-02T05:37:45;96599.53;;;6.06
79053;BMP280;68451;49.510;6.026;2024-03-02T05:39:47;96583.75;;;5.96
79053;BMP280;68451;49.510;6.026;2024-03-02T05:41:49;96572.72;;;5.89
79053;BMP280;68451;49.510;6.026;2024-03-02T05:43:51;96585.00;;;5.94
79053;BMP280;68451;49.510;6.026;2024-03-02T05:45:52;96575.97;;;5.84
79053;BMP280;68451;49.510;6.026;2024-03-02T05:47:54;96592.31;;;5.97
79053;BMP280;68451;49.510;6.026;2024-03-02T05:49:56;96580.09;;;5.85
79053;BMP280;68451;49.510;6.026;2024-03-02T05:51:58;96569.75;;;5.85
79053;BMP280;68451;49.510;6.026;2024-03-02T05:54:00;96580.25;;;5.91
79053;BMP280;68451;49.510;6.026;2024-03-02T05:56:01;96588.25;;;5.89
79053;BMP280;68451;49.510;6.026;2024-03-02T05:58:06;96557.69;;;5.68
79053;BMP280;68451;49.510;6.026;2024-03-02T06:00:08;96552.06;;;5.59
79053;BMP280;68451;49.510;6.026;2024-03-02T06:02:10;96584.72;;;5.83
79053;BMP280;68451;49.510;6.026;2024-03-02T06:04:12;96589.59;;;5.80
79053;BMP280;68451;49.510;6.026;2024-03-02T06:06:14;96573.09;;;5.63
79053;BMP280;68451;49.510;6.026;2024-03-02T06:08:16;96579.53;;;5.60
79053;BMP280;68451;49.510;6.026;2024-03-02T06:10:17;96577.97;;;5.71
79053;BMP280;68451;49.510;6.026;2024-03-02T06:12:19;96590.72;;;5.84
79053;BMP280;68451;49.510;6.026;2024-03-02T06:14:21;96583.25;;;5.76
79053;BMP280;68451;49.510;6.026;2024-03-02T06:16:23;96586.63;;;5.76
79053;BMP280;68451;49.510;6.026;2024-03-02T06:18:25;96583.03;;;5.77
79053;BMP280;68451;49.510;6.026;2024-03-02T06:20:27;96594.97;;;5.78
79053;BMP280;68451;49.510;6.026;2024-03-02T06:22:37;96591.00;;;5.76
79053;BMP280;68451;49.510;6.026;2024-03-02T06:24:38;96608.59;;;5.85
79053;BMP280;68451;49.510;6.026;2024-03-02T06:26:40;96576.84;;;5.67
79053;BMP280;68451;49.510;6.026;2024-03-02T06:28:42;96608.59;;;5.85
79053;BMP280;68451;49.510;6.026;2024-03-02T06:30:44;96610.31;;;5.80
79053;BMP280;68451;49.510;6.026;2024-03-02T06:32:46;96274.19;;;3.68
79053;BMP280;68451;49.510;6.026;2024-03-02T06:34:48;96575.81;;;5.68
79053;BMP280;68451;49.510;6.026;2024-03-02T06:36:50;96563.22;;;5.60
79053;BMP280;68451;49.510;6.026;2024-03-02T06:38:52;96618.44;;;5.95
79053;BMP280;68451;49.510;6.026;2024-03-02T06:40:54;96608.84;;;5.84
79053;BMP280;68451;49.510;6.026;2024-03-02T06:42:56;96601.50;;;5.81
79053;BMP280;68451;49.510;6.026;2024-03-02T06:44:59;96437.91;;;4.79
79053;BMP280;68451;49.510;6.026;2024-03-02T06:47:01;96622.69;;;5.90
79053;BMP280;68451;49.510;6.026;2024-03-02T06:49:03;96628.13;;;6.00
79053;BMP280;68451;49.510;6.026;2024-03-02T06:51:05;96629.91;;;5.99
79053;BMP280;68451;49.510;6.026;2024-03-02T06:53:07;96628.44;;;6.03
79053;BMP280;68451;49.510;6.026;2024-03-02T06:55:09;96627.56;;;6.09
79053;BMP280;68451;49.510;6.026;2024-03-02T06:57:11;96625.97;;;6.08
79053;BMP280;68451;49.510;6.026;2024-03-02T06:59:13;96618.66;;;6.05
79053;BMP280;68451;49.510;6.026;2024-03-02T07:01:14;96625.63;;;6.16
79053;BMP280;68451;49.510;6.026;2024-03-02T07:03:16;96470.34;;;5.17
79053;BMP280;68451;49.510;6.026;2024-03-02T07:05:18;96623.16;;;6.21
79053;BMP280;68451;49.510;6.026;2024-03-02T07:07:20;96600.66;;;6.10
79053;BMP280;68451;49.510;6.026;2024-03-02T07:09:22;96477.78;;;5.36
79053;BMP280;68451;49.510;6.026;2024-03-02T07:11:27;96624.06;;;6.27
79053;BMP280;68451;49.510;6.026;2024-03-02T07:13:29;96624.28;;;6.25
79053;BMP280;68451;49.510;6.026;2024-03-02T07:15:31;96628.34;;;6.21
79053;BMP280;68451;49.510;6.026;2024-03-02T07:17:53;96642.34;;;6.20
79053;BMP280;68451;49.510;6.026;2024-03-02T07:19:55;96638.94;;;6.20
79053;BMP280;68451;49.510;6.026;2024-03-02T07:21:57;96509.06;;;5.35
79053;BMP280;68451;49.510;6.026;2024-03-02T07:23:58;96649.97;;;6.27
79053;BMP280;68451;49.510;6.026;2024-03-02T07:26:00;96460.75;;;5.06
79053;BMP280;68451;49.510;6.026;2024-03-02T07:28:06;96641.75;;;6.18
79053;BMP280;68451;49.510;6.026;2024-03-02T07:30:09;96478.78;;;5.24
79053;BMP280;68451;49.510;6.026;2024-03-02T07:32:12;96626.22;;;6.18
79053;BMP280;68451;49.510;6.026;2024-03-02T07:34:14;96645.56;;;6.39
79053;BMP280;68451;49.510;6.026;2024-03-02T07:36:16;96625.09;;;6.38
79053;BMP280;68451;49.510;6.026;2024-03-02T07:38:18;96653.22;;;6.57
79053;BMP280;68451;49.510;6.026;2024-03-02T07:40:20;96597.94;;;6.28
79053;BMP280;68451;49.510;6.026;2024-03-02T07:42:21;96635.97;;;6.63
79053;BMP280;68451;49.510;6.026;2024-03-02T07:44:23;96487.22;;;5.77
79053;BMP280;68451;49.510;6.026;2024-03-02T07:46:25;96633.78;;;7.11
79053;BMP280;68451;49.510;6.026;2024-03-02T07:48:27;96615.34;;;7.25
79053;BMP280;68451;49.510;6.026;2024-03-02T07:50:29;96631.13;;;7.68
79053;BMP280;68451;49.510;6.026;2024-03-02T07:52:36;96621.53;;;8.19
79053;BMP280;68451;49.510;6.026;2024-03-02T07:54:38;96633.59;;;8.63
79053;BMP280;68451;49.510;6.026;2024-03-02T07:56:40;96631.19;;;9.00
79053;BMP280;68451;49.510;6.026;2024-03-02T07:58:41;96643.94;;;9.23
79053;BMP280;68451;49.510;6.026;2024-03-02T08:00:43;96630.94;;;9.50
79053;BMP280;68451;49.510;6.026;2024-03-02T08:02:46;96631.44;;;9.79
79053;BMP280;68451;49.510;6.026;2024-03-02T08:04:48;96604.16;;;9.60
79053;BMP280;68451;49.510;6.026;2024-03-02T08:06:49;96642.13;;;9.77
79053;BMP280;68451;49.510;6.026;2024-03-02T08:08:51;96606.75;;;9.28
79053;BMP280;68451;49.510;6.026;2024-03-02T08:10:53;96657.41;;;9.42
79053;BMP280;68451;49.510;6.026;2024-03-02T08:12:55;96653.53;;;9.71
79053;BMP280;68451;49.510;6.026;2024-03-02T08:14:57;96639.47;;;9.72
79053;BMP280;68451;49.510;6.026;2024-03-02T08:16:58;96641.94;;;9.89
79053;BMP280;68451;49.510;6.026;2024-03-02T08:19:01;96630.22;;;9.92
79053;BMP280;68451;49.510;6.026;2024-03-02T08:21:05;96605.00;;;9.65
79053;BMP280;68451;49.510;6.026;2024-03-02T08:23:07;96582.69;;;9.79
79053;BMP280;68451;49.510;6.026;2024-03-02T08:25:09;96603.44;;;10.01
79053;BMP280;68451;49.510;6.026;2024-03-02T08:27:11;96595.13;;;9.67
79053;BMP280;68451;49.510;6.026;2024-03-02T08:29:13;96612.28;;;9.63
79053;BMP280;68451;49.510;6.026;2024-03-02T08:31:15;96656.56;;;10.22
79053;BMP280;68451;49.510;6.026;2024-03-02T08:33:17;96580.38;;;9.46
79053;BMP280;68451;49.510;6.026;2024-03-02T08:35:19;96610.78;;;9.40
79053;BMP280;68451;49.510;6.026;2024-03-02T08:37:20;96654.53;;;9.17
79053;BMP280;68451;49.510;6.026;2024-03-02T08:39:22;96596.03;;;8.54
79053;BMP280;68451;49.510;6.026;2024-03-02T08:41:24;96665.84;;;8.62
79053;BMP280;68451;49.510;6.026;2024-03-02T08:43:26;96651.94;;;8.35
79053;BMP280;68451;49.510;6.026;2024-03-02T08:45:28;96616.91;;;7.87
79053;BMP280;68451;49.510;6.026;2024-03-02T08:47:30;96589.44;;;7.58
79053;BMP280;68451;49.510;6.026;2024-03-02T08:49:32;96631.47;;;7.88
79053;BMP280;68451;49.510;6.026;2024-03-02T08:51:35;96615.66;;;7.90
79053;BMP280;68451;49.510;6.026;2024-03-02T08:53:36;96638.25;;;8.06
79053;BMP280;68451;49.510;6.026;2024-03-02T08:55:39;96639.44;;;7.98
79053;BMP280;68451;49.510;6.026;2024-03-02T08:57:41;96664.00;;;8.07
79053;BMP280;68451;49.510;6.026;2024-03-02T08:59:43;96637.06;;;7.80
79053;BMP280;68451;49.510;6.026;2024-03-02T09:01:45;96665.25;;;7.88
79053;BMP280;68451;49.510;6.026;2024-03-02T09:03:48;96648.97;;;7.76
79053;BMP280;68451;49.510;6.026;2024-03-02T09:05:50;96605.97;;;7.52
79053;BMP280;68451;49.510;6.026;2024-03-02T09:07:52;96663.28;;;7.79
79053;BMP280;68451;49.510;6.026;2024-03-02T09:09:54;96650.81;;;7.64
79053;BMP280;68451;49.510;6.026;2024-03-02T09:11:56;96667.16;;;7.76
79053;BMP280;68451;49.510;6.026;2024-03-02T09:13:59;96620.94;;;8.12
79053;BMP280;68451;49.510;6.026;2024-03-02T09:16:01;96540.66;;;9.07
79053;BMP280;68451;49.510;6.026;2024-03-02T09:18:04;96589.16;;;9.40
79053;BMP280;68451;49.510;6.026;2024-03-02T09:20:06;96628.66;;;9.59
79053;BMP280;68451;49.510;6.026;2024-03-02T09:22:08;96560.38;;;9.57
79053;BMP280;68451;49.510;6.026;2024-03-02T09:24:11;96650.81;;;10.67
79053;BMP280;68451;49.510;6.026;2024-03-02T09:26:17;96612.53;;;10.83
79053;BMP280;68451;49.510;6.026;2024-03-02T09:28:21;96613.63;;;10.40
79053;BMP280;68451;49.510;6.026;2024-03-02T09:30:23;96652.06;;;10.54
79053;BMP280;68451;49.510;6.026;2024-03-02T09:32:24;96628.84;;;10.53
79053;BMP280;68451;49.510;6.026;2024-03-02T09:34:26;96649.34;;;10.86
79053;BMP280;68451;49.510;6.026;2024-03-02T09:36:28;96581.81;;;11.15
79053;BMP280;68451;49.510;6.026;2024-03-02T09:38:32;96617.66;;;10.67
79053;BMP280;68451;49.510;6.026;2024-03-02T09:40:35;96646.53;;;10.46
79053;BMP280;68451;49.510;6.026;2024-03-02T09:42:38;96616.75;;;10.00
79053;BMP280;68451;49.510;6.026;2024-03-02T09:44:40;96372.00;;;8.19
79053;BMP280;68451;49.510;6.026;2024-03-02T09:46:42;96608.56;;;9.54
79053;BMP280;68451;49.510;6.026;2024-03-02T09:48:46;96630.63;;;9.47
79053;BMP280;68451;49.510;6.026;2024-03-02T09:50:47;96599.03;;;9.38
79053;BMP280;68451;49.510;6.026;2024-03-02T09:52:49;96651.59;;;10.67
79053;BMP280;68451;49.510;6.026;2024-03-02T09:54:52;96603.66;;;10.94
79053;BMP280;68451;49.510;6.026;2024-03-02T09:56:54;96518.50;;;10.67
79053;BMP280;68451;49.510;6.026;2024-03-02T09:58:56;96597.59;;;11.96
79053;BMP280;68451;49.510;6.026;2024-03-02T10:00:58;96625.13;;;12.73
79053;BMP280;68451;49.510;6.026;2024-03-02T10:03:00;96625.13;;;12.78
79053;BMP280;68451;49.510;6.026;2024-03-02T10:05:02;96615.34;;;11.94
79053;BMP280;68451;49.510;6.026;2024-03-02T10:07:15;96583.16;;;11.28
79053;BMP280;68451;49.510;6.026;2024-03-02T10:09:27;96511.13;;;10.44
79053;BMP280;68451;49.510;6.026;2024-03-02T10:11:32;96354.88;;;9.13
79053;BMP280;68451;49.510;6.026;2024-03-02T10:13:35;96576.59;;;10.43
79053;BMP280;68451;49.510;6.026;2024-03-02T10:15:37;96601.41;;;10.50
79053;BMP280;68451;49.510;6.026;2024-03-02T10:17:39;96610.72;;;10.36
79053;BMP280;68451;49.510;6.026;2024-03-02T10:19:41;96458.34;;;9.28
79053;BMP280;68451;49.510;6.026;2024-03-02T10:21:47;96574.75;;;10.01
79053;BMP280;68451;49.510;6.026;2024-03-02T10:23:51;96497.75;;;9.41
79053;BMP280;68451;49.510;6.026;2024-03-02T10:25:53;96600.59;;;10.03
79053;BMP280;68451;49.510;6.026;2024-03-02T10:27:59;96424.91;;;8.83
79053;BMP280;68451;49.510;6.026;2024-03-02T10:30:10;96595.72;;;9.79
79053;BMP280;68451;49.510;6.026;2024-03-02T10:32:13;96606.06;;;9.69
79053;BMP280;68451;49.510;6.026;2024-03-02T10:34:14;96591.69;;;9.62
79053;BMP280;68451;49.510;6.026;2024-03-02T10:36:18;96599.66;;;9.50
79053;BMP280;68451;49.510;6.026;2024-03-02T10:38:20;96538.97;;;9.18
79053;BMP280;68451;49.510;6.026;2024-03-02T10:40:22;96569.56;;;9.32
79053;BMP280;68451;49.510;6.026;2024-03-02T10:42:24;96451.03;;;8.66
79053;BMP280;68451;49.510;6.026;2024-03-02T10:44:27;96574.66;;;9.49
79053;BMP280;68451;49.510;6.026;2024-03-02T10:46:31;96493.44;;;8.93
79053;BMP280;68451;49.510;6.026;2024-03-02T10:48:35;96480.47;;;8.98
79053;BMP280;68451;49.510;6.026;2024-03-02T10:50:38;96571.41;;;9.69
79053;BMP280;68451;49.510;6.026;2024-03-02T10:52:40;96551.34;;;9.69
79053;BMP280;68451;49.510;6.026;2024-03-02T10:54:42;96555.38;;;9.82
79053;BMP280;68451;49.510;6.026;2024-03-02T10:56:46;96579.16;;;9.96
79053;BMP280;68451;49.510;6.026;2024-03-02T10:58:50;96544.88;;;9.72
79053;BMP280;68451;49.510;6.026;2024-03-02T11:00:56;96517.88;;;9.51
79053;BMP280;68451;49.510;6.026;2024-03-02T11:03:05;96557.38;;;9.75
79053;BMP280;68451;49.510;6.026;2024-03-02T11:05:10;96556.28;;;9.66
79053;BMP280;68451;49.510;6.026;2024-03-02T11:07:12;96570.94;;;9.72
79053;BMP280;68451;49.510;6.026;2024-03-02T11:09:16;96531.84;;;9.40
79053;BMP280;68451;49.510;6.026;2024-03-02T11:11:27;96557.50;;;9.53
79053;BMP280;68451;49.510;6.026;2024-03-02T11:13:32;96390.06;;;8.57
79053;BMP280;68451;49.510;6.026;2024-03-02T11:15:36;96535.41;;;9.61
79053;BMP280;68451;49.510;6.026;2024-03-02T11:17:40;96538.91;;;9.76
79053;BMP280;68451;49.510;6.026;2024-03-02T11:19:43;96562.00;;;10.00
79053;BMP280;68451;49.510;6.026;2024-03-02T11:21:45;96507.31;;;9.68
79053;BMP280;68451;49.510;6.026;2024-03-02T11:23:48;96544.28;;;10.02
79053;BMP280;68451;49.510;6.026;2024-03-02T11:25:49;96568.91;;;10.16
79053;BMP280;68451;49.510;6.026;2024-03-02T11:29:56;96561.41;;;10.29
79053;BMP280;68451;49.510;6.026;2024-03-02T11:31:58;96548.59;;;10.23
79053;BMP280;68451;49.510;6.026;2024-03-02T11:34:29;96465.19;;;9.81
79053;BMP280;68451;49.510;6.026;2024-03-02T11:36:31;96528.03;;;10.26
79053;BMP280;68451;49.510;6.026;2024-03-02T11:38:34;96512.88;;;10.23
79053;BMP280;68451;49.510;6.026;2024-03-02T11:40:39;96544.50;;;10.42
79053;BMP280;68451;49.510;6.026;2024-03-02T11:42:41;96492.53;;;10.20
79053;BMP280;68451;49.510;6.026;2024-03-02T11:44:48;96496.72;;;10.26
79053;BMP280;68451;49.510;6.026;2024-03-02T11:46:59;96412.56;;;9.84
79053;BMP280;68451;49.510;6.026;2024-03-02T11:49:02;96539.38;;;10.67
79053;BMP280;68451;49.510;6.026;2024-03-02T11:51:04;96531.59;;;10.83
79053;BMP280;68451;49.510;6.026;2024-03-02T11:53:07;96506.50;;;10.66
79053;BMP280;68451;49.510;6.026;2024-03-02T11:55:14;96409.22;;;9.99
79053;BMP280;68451;49.510;6.026;2024-03-02T11:57:18;96496.28;;;10.50
79053;BMP280;68451;49.510;6.026;2024-03-02T11:59:21;96500.22;;;10.52